createdAt,value
2022-09-20T00:01:33.886Z,10.03
2022-09-20T00:04:05.101Z,10.03
2022-09-20T00:06:32.929Z,10.06
2022-09-20T00:09:01.243Z,10.05
2022-09-20T00:11:31.049Z,10.03
2022-09-20T00:13:59.336Z,10.04
2022-09-20T00:16:32.627Z,10.06
2022-09-20T00:19:01.205Z,10.09
2022-09-20T00:21:29.241Z,10.10
2022-09-20T00:23:59.498Z,10.12
2022-09-20T00:26:27.181Z,10.13
2022-09-20T00:28:54.043Z,10.15
2022-09-20T00:31:20.574Z,10.15
2022-09-20T00:34:07.932Z,10.17
2022-09-20T00:36:34.435Z,10.15
2022-09-20T00:39:02.302Z,10.15
2022-09-20T00:41:30.832Z,10.14
2022-09-20T00:43:58.398Z,10.13
2022-09-20T00:46:44.713Z,10.09
2022-09-20T00:49:22.027Z,10.12
2022-09-20T00:51:55.373Z,10.14
2022-09-20T00:54:25.052Z,10.18
2022-09-20T00:56:51.748Z,10.18
2022-09-20T00:59:30.214Z,10.22
2022-09-20T01:02:12.435Z,10.23
2022-09-20T01:04:42.554Z,10.23
2022-09-20T01:07:13.664Z,10.24
2022-09-20T01:09:40.130Z,10.25
2022-09-20T01:12:13.017Z,10.26
2022-09-20T01:14:40.958Z,10.27
2022-09-20T01:17:08.027Z,10.27
2022-09-20T01:19:58.246Z,10.29
2022-09-20T01:22:43.333Z,10.30
2022-09-20T01:25:29.391Z,10.31
2022-09-20T01:27:55.790Z,10.32
2022-09-20T01:30:25.932Z,10.32
2022-09-20T01:33:29.954Z,10.30
2022-09-20T01:36:01.046Z,10.31
2022-09-20T01:38:46.539Z,10.31
2022-09-20T01:41:26.375Z,10.31
2022-09-20T01:43:56.559Z,10.33
2022-09-20T01:46:31.620Z,10.33
2022-09-20T01:49:20.029Z,10.37
2022-09-20T01:52:10.806Z,10.42
2022-09-20T01:54:57.976Z,10.44
2022-09-20T01:57:49.341Z,10.44
2022-09-20T02:00:21.628Z,10.46
2022-09-20T02:03:09.369Z,10.47
2022-09-20T02:06:00.193Z,10.50
2022-09-20T02:08:45.978Z,10.53
2022-09-20T02:11:16.844Z,10.53
2022-09-20T02:14:04.075Z,10.53
2022-09-20T02:16:33.608Z,10.51
2022-09-20T02:19:24.981Z,10.51
2022-09-20T02:22:29.926Z,10.50
2022-09-20T02:25:26.049Z,10.50
2022-09-20T02:28:07.755Z,10.51
2022-09-20T02:31:00.359Z,10.52
2022-09-20T02:33:56.114Z,10.54
2022-09-20T02:36:37.874Z,10.56
2022-09-20T02:39:22.107Z,10.58
2022-09-20T02:41:57.756Z,10.59
2022-09-20T02:45:22.799Z,10.62
2022-09-20T02:47:49.755Z,10.61
2022-09-20T02:50:19.982Z,10.59
2022-09-20T02:53:17.505Z,10.61
2022-09-20T02:55:50.104Z,10.61
2022-09-20T02:58:37.862Z,10.59
2022-09-20T03:01:29.942Z,10.58
2022-09-20T03:04:09.943Z,10.58
2022-09-20T03:07:02.283Z,10.59
2022-09-20T03:10:04.149Z,10.59
2022-09-20T03:13:07.676Z,10.61
2022-09-20T03:15:53.439Z,10.61
2022-09-20T03:18:33.550Z,10.59
2022-09-20T03:21:19.320Z,10.57
2022-09-20T03:23:48.328Z,10.58
2022-09-20T03:26:33.740Z,10.57
2022-09-20T03:29:22.015Z,10.58
2022-09-20T03:32:07.629Z,10.57
2022-09-20T03:34:52.800Z,10.55
2022-09-20T03:37:37.924Z,10.52
2022-09-20T03:40:17.747Z,10.46
2022-09-20T03:42:51.711Z,10.47
2022-09-20T03:45:36.646Z,10.48
2022-09-20T03:48:24.931Z,10.49
2022-09-20T03:51:00.503Z,10.47
2022-09-20T03:54:09.174Z,10.50
2022-09-20T03:56:58.782Z,10.50
2022-09-20T04:00:03.240Z,10.48
2022-09-20T04:03:00.438Z,10.53
2022-09-20T04:05:46.627Z,10.55
2022-09-20T04:08:28.237Z,10.53
2022-09-20T04:11:08.806Z,10.52
2022-09-20T04:13:42.435Z,10.54
2022-09-20T04:16:30.528Z,10.55
2022-09-20T04:19:30.850Z,10.56
2022-09-20T04:22:01.123Z,10.59
2022-09-20T04:24:30.574Z,10.60
2022-09-20T04:27:03.724Z,10.61
2022-09-20T04:29:53.347Z,10.61
2022-09-20T04:32:28.722Z,10.62
2022-09-20T04:35:30.027Z,10.62
2022-09-20T04:37:56.997Z,10.62
2022-09-20T04:40:51.676Z,10.63
2022-09-20T04:43:45.498Z,10.64
2022-09-20T04:46:52.832Z,10.66
2022-09-20T04:50:07.751Z,10.66
2022-09-20T04:52:55.900Z,10.66
2022-09-20T04:55:44.755Z,10.68
2022-09-20T04:58:36.296Z,10.64
2022-09-20T05:01:16.698Z,10.62
2022-09-20T05:04:08.321Z,10.62
2022-09-20T05:06:56.223Z,10.58
2022-09-20T05:09:55.083Z,10.59
2022-09-20T05:12:51.602Z,10.59
2022-09-20T05:15:28.886Z,10.59
2022-09-20T05:18:10.765Z,10.61
2022-09-20T05:20:46.735Z,10.62
2022-09-20T05:23:46.424Z,10.63
2022-09-20T05:26:26.351Z,10.64
2022-09-20T05:29:11.668Z,10.63
2022-09-20T05:31:41.368Z,10.62
2022-09-20T05:34:42.729Z,10.65
2022-09-20T05:37:32.615Z,10.65
2022-09-20T05:40:18.693Z,10.65
2022-09-20T05:43:03.778Z,10.66
2022-09-20T05:46:01.129Z,10.67
2022-09-20T05:48:58.490Z,10.68
2022-09-20T05:51:40.095Z,10.69
2022-09-20T05:54:28.602Z,10.68
2022-09-20T05:57:16.037Z,10.69
2022-09-20T06:00:13.336Z,10.69
2022-09-20T06:03:14.555Z,10.70
2022-09-20T06:05:55.657Z,10.72
2022-09-20T06:08:50.234Z,10.74
2022-09-20T06:11:50.055Z,10.72
2022-09-20T06:14:39.925Z,10.75
2022-09-20T06:17:19.091Z,10.79
2022-09-20T06:20:02.712Z,10.80
2022-09-20T06:22:45.384Z,10.81
2022-09-20T06:25:26.235Z,10.83
2022-09-20T06:27:58.668Z,10.84
2022-09-20T06:30:30.086Z,10.87
2022-09-20T06:33:00.808Z,10.89
2022-09-20T06:35:33.735Z,10.89
2022-09-20T06:38:35.399Z,10.89
2022-09-20T06:41:22.259Z,10.89
2022-09-20T06:43:48.974Z,10.89
2022-09-20T06:46:16.100Z,10.87
2022-09-20T06:48:42.595Z,10.88
2022-09-20T06:51:12.467Z,10.88
2022-09-20T06:53:41.719Z,10.89
2022-09-20T06:56:18.774Z,10.89
2022-09-20T06:58:45.428Z,10.93
2022-09-20T07:01:13.749Z,10.93
2022-09-20T07:03:40.961Z,10.91
2022-09-20T07:06:08.809Z,10.93
2022-09-20T07:08:36.326Z,10.93
2022-09-20T07:11:11.854Z,10.94
2022-09-20T07:13:38.263Z,10.94
2022-09-20T07:16:07.346Z,10.97
2022-09-20T07:18:34.828Z,11.01
2022-09-20T07:21:01.765Z,11.04
2022-09-20T07:23:32.326Z,11.09
2022-09-20T07:26:00.645Z,11.13
2022-09-20T07:28:28.746Z,11.17
2022-09-20T07:30:56.374Z,11.23
2022-09-20T07:33:24.899Z,11.21
2022-09-20T07:35:54.459Z,11.28
2022-09-20T07:38:22.636Z,11.32
2022-09-20T07:41:00.601Z,11.41
2022-09-20T07:43:27.608Z,11.52
2022-09-20T07:45:56.214Z,11.57
2022-09-20T07:48:25.955Z,11.53
2022-09-20T07:51:11.304Z,11.51
2022-09-20T07:53:39.048Z,11.50
2022-09-20T07:56:14.823Z,11.52
2022-09-20T07:58:43.114Z,11.53
2022-09-20T08:01:12.643Z,11.53
2022-09-20T08:03:39.622Z,11.63
2022-09-20T08:06:11.249Z,11.69
2022-09-20T08:08:40.759Z,11.91
2022-09-20T08:11:10.501Z,12.01
2022-09-20T08:16:26.781Z,12.25
2022-09-20T08:18:57.098Z,12.22
2022-09-20T08:21:25.437Z,12.17
2022-09-20T08:23:52.590Z,12.17
2022-09-20T08:26:22.634Z,12.17
2022-09-20T08:28:52.867Z,12.20
2022-09-20T08:31:21.555Z,12.21
2022-09-20T08:33:50.332Z,12.20
2022-09-20T08:36:22.634Z,12.30
2022-09-20T08:42:02.156Z,12.42
2022-09-20T08:45:01.431Z,12.42
2022-09-20T08:47:35.826Z,12.35
2022-09-20T08:50:09.824Z,12.36
2022-09-20T08:52:40.638Z,12.34
2022-09-20T08:55:18.019Z,12.22
2022-09-20T08:57:49.219Z,12.14
2022-09-20T09:00:21.228Z,12.15
2022-09-20T09:02:51.709Z,12.09
2022-09-20T09:05:40.417Z,12.05
2022-09-20T09:08:16.345Z,12.04
2022-09-20T09:10:49.072Z,11.99
2022-09-20T09:13:25.141Z,11.96
2022-09-20T09:15:57.217Z,11.93
2022-09-20T09:18:34.727Z,11.89
2022-09-20T09:21:04.260Z,12.01
2022-09-20T09:23:41.530Z,12.11
2022-09-20T09:26:17.549Z,12.25
2022-09-20T09:28:44.094Z,12.33
2022-09-20T09:31:29.627Z,12.60
2022-09-20T09:33:56.083Z,12.71
2022-09-20T09:36:25.905Z,12.63
2022-09-20T09:39:16.537Z,12.64
2022-09-20T09:41:43.341Z,12.65
2022-09-20T09:44:24.761Z,12.71
2022-09-20T09:46:53.638Z,12.78
2022-09-20T09:49:25.608Z,12.76
2022-09-20T09:52:07.374Z,12.69
2022-09-20T09:54:39.172Z,12.71
2022-09-20T09:57:11.864Z,12.79
2022-09-20T09:59:57.625Z,12.82
2022-09-20T10:02:55.267Z,12.82
2022-09-20T10:05:35.081Z,12.92
2022-09-20T10:08:15.442Z,13.02
2022-09-20T10:11:04.161Z,12.95
2022-09-20T10:13:53.321Z,12.96
2022-09-20T10:16:35.142Z,12.96
2022-09-20T10:19:07.130Z,13.04
2022-09-20T10:21:56.199Z,13.02
2022-09-20T10:25:09.844Z,12.99
2022-09-20T10:28:08.641Z,13.09
2022-09-20T10:30:45.298Z,13.08
2022-09-20T10:33:38.285Z,13.00
2022-09-20T10:36:47.279Z,12.95
2022-09-20T10:39:23.534Z,12.92
2022-09-20T10:42:35.992Z,12.80
2022-09-20T10:46:14.450Z,12.69
2022-09-20T10:48:51.525Z,12.63
2022-09-20T10:51:44.784Z,12.58
2022-09-20T10:54:37.972Z,12.56
2022-09-20T10:57:26.076Z,12.54
2022-09-20T11:00:04.677Z,12.57
2022-09-20T11:03:00.287Z,12.58
2022-09-20T11:05:43.644Z,12.60
2022-09-20T11:08:15.223Z,12.64
2022-09-20T11:10:47.662Z,12.66
2022-09-20T11:13:20.267Z,12.78
2022-09-20T11:15:59.532Z,12.82
2022-09-20T11:18:36.362Z,12.90
2022-09-20T11:21:07.644Z,12.93
2022-09-20T11:23:45.538Z,12.93
2022-09-20T11:26:22.606Z,12.95
2022-09-20T11:28:55.055Z,12.97
2022-09-20T11:31:41.056Z,12.98
2022-09-20T11:34:20.112Z,13.01
2022-09-20T11:36:54.584Z,12.99
2022-09-20T11:39:27.699Z,12.99
2022-09-20T11:41:57.327Z,12.97
2022-09-20T11:44:23.959Z,13.00
2022-09-20T11:46:59.843Z,13.04
2022-09-20T11:49:34.224Z,13.12
2022-09-20T11:52:11.378Z,13.08
2022-09-20T11:54:55.590Z,13.16
2022-09-20T11:57:23.196Z,13.27
2022-09-20T11:59:56.270Z,13.49
2022-09-20T12:02:46.647Z,13.49
2022-09-20T12:05:38.010Z,13.48
2022-09-20T12:08:08.679Z,13.41
2022-09-20T12:10:39.355Z,13.35
2022-09-20T12:13:18.318Z,13.31
2022-09-20T12:15:45.025Z,13.19
2022-09-20T12:18:31.111Z,13.05
2022-09-20T12:21:16.062Z,13.05
2022-09-20T12:24:10.202Z,13.01
2022-09-20T12:26:41.930Z,12.98
2022-09-20T12:29:23.699Z,12.91
2022-09-20T12:31:55.686Z,12.80
2022-09-20T12:34:22.648Z,12.70
2022-09-20T12:36:55.027Z,12.65
2022-09-20T12:39:27.555Z,12.71
2022-09-20T12:42:24.407Z,12.76
2022-09-20T12:44:50.779Z,12.80
2022-09-20T12:47:34.547Z,12.87
2022-09-20T12:50:21.556Z,13.00
2022-09-20T12:52:57.951Z,13.53
2022-09-20T12:55:27.618Z,13.75
2022-09-20T12:58:16.697Z,13.64
2022-09-20T13:01:04.748Z,13.69
2022-09-20T13:03:39.882Z,13.63
2022-09-20T13:06:06.578Z,13.55
2022-09-20T13:09:09.430Z,13.62
2022-09-20T13:11:52.442Z,13.76
2022-09-20T13:14:25.220Z,13.89
2022-09-20T13:17:04.075Z,13.95
2022-09-20T13:19:34.539Z,13.91
2022-09-20T13:22:00.885Z,13.88
2022-09-20T13:24:38.188Z,13.92
2022-09-20T13:27:19.634Z,13.92
2022-09-20T13:29:47.034Z,13.91
2022-09-20T13:32:27.678Z,13.89
2022-09-20T13:35:14.486Z,13.89
2022-09-20T13:37:56.551Z,13.88
2022-09-20T13:40:39.043Z,13.89
2022-09-20T13:43:23.584Z,13.82
2022-09-20T13:46:10.153Z,13.80
2022-09-20T13:48:37.139Z,13.77
2022-09-20T13:51:04.196Z,13.75
2022-09-20T13:53:41.544Z,13.76
2022-09-20T13:56:29.918Z,13.73
2022-09-20T13:58:58.895Z,13.64
2022-09-20T14:01:30.842Z,13.55
2022-09-20T14:04:08.165Z,13.56
2022-09-20T14:06:35.758Z,13.55
2022-09-20T14:09:10.707Z,13.66
2022-09-20T14:11:39.008Z,13.73
2022-09-20T14:14:07.935Z,13.80
2022-09-20T14:16:45.136Z,13.95
2022-09-20T14:19:17.677Z,14.00
2022-09-20T14:21:45.661Z,14.04
2022-09-20T14:24:15.106Z,14.10
2022-09-20T14:26:43.417Z,14.05
2022-09-20T14:29:37.232Z,14.03
2022-09-20T14:32:12.041Z,14.10
2022-09-20T14:34:40.340Z,14.25
2022-09-20T14:37:13.518Z,14.31
2022-09-20T14:39:53.797Z,14.36
2022-09-20T14:42:43.669Z,14.26
2022-09-20T14:45:30.263Z,14.16
2022-09-20T14:48:25.894Z,14.14
2022-09-20T14:51:25.162Z,14.27
2022-09-20T14:54:12.887Z,14.32
2022-09-20T14:56:49.227Z,14.30
2022-09-20T14:59:24.588Z,14.37
2022-09-20T15:02:14.610Z,14.36
2022-09-20T15:04:51.232Z,14.27
2022-09-20T15:07:17.732Z,14.19
2022-09-20T15:09:44.115Z,14.16
2022-09-20T15:12:18.074Z,14.01
2022-09-20T15:14:44.930Z,13.96
2022-09-20T15:17:18.301Z,13.93
2022-09-20T15:19:48.895Z,13.83
2022-09-20T15:22:15.753Z,13.75
2022-09-20T15:24:42.839Z,13.69
2022-09-20T15:27:12.076Z,13.69
2022-09-20T15:29:39.070Z,13.72
2022-09-20T15:32:06.281Z,13.65
2022-09-20T15:34:32.759Z,13.58
2022-09-20T15:36:59.673Z,13.52
2022-09-20T15:39:26.225Z,13.49
2022-09-20T15:41:53.432Z,13.51
2022-09-20T15:44:20.326Z,13.48
2022-09-20T15:46:48.175Z,13.54
2022-09-20T15:49:14.644Z,13.55
2022-09-20T15:51:41.063Z,13.50
2022-09-20T15:54:07.703Z,13.44
2022-09-20T15:56:37.061Z,13.31
2022-09-20T15:59:05.711Z,13.30
2022-09-20T16:01:40.568Z,13.24
2022-09-20T16:04:08.521Z,13.15
2022-09-20T16:06:35.277Z,13.16
2022-09-20T16:09:02.151Z,13.16
2022-09-20T16:11:28.787Z,13.14
2022-09-20T16:13:57.475Z,13.14
2022-09-20T16:16:25.855Z,13.09
2022-09-20T16:19:11.024Z,13.05
2022-09-20T16:21:39.505Z,13.06
2022-09-20T16:24:07.041Z,13.03
2022-09-20T16:26:34.494Z,13.04
2022-09-20T16:29:02.512Z,13.05
2022-09-20T16:31:42.265Z,13.03
2022-09-20T16:34:13.265Z,13.16
2022-09-20T16:36:44.226Z,13.15
2022-09-20T16:39:12.286Z,13.11
2022-09-20T16:41:39.509Z,13.07
2022-09-20T16:44:06.453Z,13.06
2022-09-20T16:46:37.191Z,13.08
2022-09-20T16:49:06.359Z,13.09
2022-09-20T16:51:35.140Z,13.10
2022-09-20T16:54:06.804Z,13.16
2022-09-20T16:56:35.285Z,13.16
2022-09-20T16:59:03.938Z,13.15
2022-09-20T17:01:31.280Z,13.18
2022-09-20T17:03:58.409Z,13.15
2022-09-20T17:06:25.775Z,13.13
2022-09-20T17:08:58.699Z,13.10
2022-09-20T17:11:35.889Z,13.08
2022-09-20T17:14:02.996Z,13.04
2022-09-20T17:16:32.089Z,13.02
2022-09-20T17:19:01.118Z,13.05
2022-09-20T17:21:29.450Z,13.10
2022-09-20T17:23:58.431Z,13.11
2022-09-20T17:26:27.904Z,13.05
2022-09-20T17:28:56.338Z,13.01
2022-09-20T17:31:28.685Z,12.95
2022-09-20T17:33:59.699Z,12.93
2022-09-20T17:36:32.716Z,12.85
2022-09-20T17:39:04.188Z,12.83
2022-09-20T17:41:32.606Z,12.82
2022-09-20T17:44:02.544Z,12.78
2022-09-20T17:46:31.697Z,12.78
2022-09-20T17:49:01.148Z,12.77
2022-09-20T17:51:37.004Z,12.77
2022-09-20T17:54:03.926Z,12.74
2022-09-20T17:56:31.213Z,12.72
2022-09-20T17:59:03.333Z,12.67
2022-09-20T18:01:33.016Z,12.65
2022-09-20T18:04:01.270Z,12.61
2022-09-20T18:06:44.570Z,12.60
2022-09-20T18:09:15.523Z,12.55
2022-09-20T18:11:51.151Z,12.52
2022-09-20T18:14:20.391Z,12.51
2022-09-20T18:16:47.334Z,12.45
2022-09-20T18:19:15.983Z,12.41
2022-09-20T18:21:42.787Z,12.38
2022-09-20T18:24:10.960Z,12.38
2022-09-20T18:26:38.311Z,12.33
2022-09-20T18:29:11.183Z,12.31
2022-09-20T18:31:45.236Z,12.26
2022-09-20T18:34:17.810Z,12.20
2022-09-20T18:36:55.903Z,12.15
2022-09-20T18:39:32.473Z,12.10
2022-09-20T18:41:59.892Z,12.03
2022-09-20T18:44:28.126Z,12.00
2022-09-20T18:46:55.034Z,11.97
2022-09-20T18:49:22.067Z,11.89
2022-09-20T18:51:49.604Z,11.89
2022-09-20T18:54:17.076Z,11.80
2022-09-20T18:56:45.398Z,11.74
2022-09-20T18:59:22.961Z,11.69
2022-09-20T19:01:55.816Z,11.69
2022-09-20T19:04:44.302Z,11.62
2022-09-20T19:07:28.678Z,11.59
2022-09-20T19:10:04.621Z,11.53
2022-09-20T19:12:49.924Z,11.51
2022-09-20T19:15:41.412Z,11.49
2022-09-20T19:18:45.390Z,11.47
2022-09-20T19:21:35.451Z,11.41
2022-09-20T19:24:17.146Z,11.37
2022-09-20T19:26:44.150Z,11.35
2022-09-20T19:29:25.730Z,11.32
2022-09-20T19:31:57.514Z,11.27
2022-09-20T19:34:26.973Z,11.28
2022-09-20T19:36:59.380Z,11.30
2022-09-20T19:39:36.887Z,11.23
2022-09-20T19:42:14.071Z,11.19
2022-09-20T19:45:01.894Z,11.18
2022-09-20T19:48:13.154Z,11.12
2022-09-20T19:50:49.830Z,11.06
2022-09-20T19:53:18.062Z,10.99
2022-09-20T19:55:48.360Z,11.01
2022-09-20T19:58:15.668Z,11.01
2022-09-20T20:00:46.927Z,10.99
2022-09-20T20:03:15.003Z,10.95
2022-09-20T20:05:56.064Z,10.91
2022-09-20T20:08:35.944Z,10.88
2022-09-20T20:11:02.346Z,10.87
2022-09-20T20:14:00.843Z,10.86
2022-09-20T20:16:33.555Z,10.88
2022-09-20T20:19:15.091Z,10.81
2022-09-20T20:21:53.773Z,10.73
2022-09-20T20:24:38.874Z,10.59
2022-09-20T20:27:05.300Z,10.61
2022-09-20T20:29:31.745Z,10.58
2022-09-20T20:31:58.353Z,10.55
2022-09-20T20:34:26.514Z,10.62
2022-09-20T20:37:00.725Z,10.59
2022-09-20T20:39:31.949Z,10.64
2022-09-20T20:42:02.335Z,10.65
2022-09-20T20:44:30.595Z,10.62
2022-09-20T20:46:57.220Z,10.58
2022-09-20T20:49:24.630Z,10.66
2022-09-20T20:51:51.065Z,10.70
2022-09-20T20:54:17.651Z,10.72
2022-09-20T20:56:44.172Z,10.68
2022-09-20T20:59:10.581Z,10.71
2022-09-20T21:01:42.720Z,10.70
2022-09-20T21:04:10.557Z,10.73
2022-09-20T21:06:40.494Z,10.78
2022-09-20T21:09:09.081Z,10.79
2022-09-20T21:11:38.213Z,10.78
2022-09-20T21:14:07.195Z,10.74
2022-09-20T21:16:36.146Z,10.75
2022-09-20T21:19:04.180Z,10.76
2022-09-20T21:21:33.396Z,10.79
2022-09-20T21:24:02.083Z,10.70
2022-09-20T21:26:32.927Z,10.66
2022-09-20T21:29:01.812Z,10.70
2022-09-20T21:31:30.119Z,10.67
2022-09-20T21:33:57.297Z,10.67
2022-09-20T21:36:26.178Z,10.68
2022-09-20T21:38:53.187Z,10.67
2022-09-20T21:41:23.660Z,10.70
2022-09-20T21:43:55.402Z,10.67
2022-09-20T21:46:30.560Z,10.67
2022-09-20T21:48:59.332Z,10.67
2022-09-20T21:51:29.395Z,10.67
2022-09-20T21:53:57.356Z,10.66
2022-09-20T21:56:27.364Z,10.66
2022-09-20T21:58:54.343Z,10.57
2022-09-20T22:01:23.166Z,10.49
2022-09-20T22:03:53.416Z,10.48
2022-09-20T22:06:22.063Z,10.47
2022-09-20T22:08:53.834Z,10.41
2022-09-20T22:11:22.233Z,10.41
2022-09-20T22:13:50.832Z,10.41
2022-09-20T22:16:19.534Z,10.42
2022-09-20T22:18:46.818Z,10.44
2022-09-20T22:21:17.406Z,10.42
2022-09-20T22:23:44.512Z,10.30
2022-09-20T22:26:16.272Z,10.22
2022-09-20T22:28:43.680Z,10.19
2022-09-20T22:31:12.977Z,10.20
2022-09-20T22:33:50.926Z,10.17
2022-09-20T22:36:22.591Z,10.07
2022-09-20T22:38:49.185Z,10.04
2022-09-20T22:41:17.839Z,10.03
2022-09-20T22:43:44.412Z,10.04
2022-09-20T22:46:16.027Z,10.03
2022-09-20T22:48:42.982Z,10.00
2022-09-20T22:51:10.498Z,9.99
2022-09-20T22:53:37.673Z,9.99
2022-09-20T22:56:10.255Z,10.04
2022-09-20T22:58:41.813Z,9.97
2022-09-20T23:01:08.387Z,9.92
2022-09-20T23:03:35.452Z,9.90
2022-09-20T23:06:03.107Z,9.89
2022-09-20T23:08:32.010Z,9.91
2022-09-20T23:11:06.262Z,9.89
2022-09-20T23:13:33.331Z,9.81
2022-09-20T23:15:59.837Z,9.83
2022-09-20T23:18:27.352Z,9.84
2022-09-20T23:21:03.854Z,9.90
2022-09-20T23:23:30.276Z,9.90
2022-09-20T23:26:07.372Z,9.89
2022-09-20T23:28:38.363Z,9.87
2022-09-20T23:31:16.415Z,9.82
2022-09-20T23:33:50.297Z,9.82
2022-09-20T23:36:17.943Z,9.81
2022-09-20T23:38:45.422Z,9.73
2022-09-20T23:41:13.839Z,9.62
2022-09-20T23:43:41.412Z,9.67
2022-09-20T23:46:09.417Z,9.71
2022-09-20T23:48:36.733Z,9.67
2022-09-20T23:51:06.862Z,9.48
2022-09-20T23:53:33.773Z,9.40
2022-09-20T23:56:00.278Z,9.36
2022-09-20T23:58:27.127Z,9.28
